KPAE/PAE METAR and TAF weather

Enter ICAO airport designator
Station Type Date Time Source
KPAE METAR 2019/04/23 03:53 UTC NOAA

KPAE 230353Z 16012KT 10SM BKN008 OVC013 11/09 A3020 RMK AO2 CIG 005V010 SLP228 T01060089


Station Type Date Time Source
KPAE Decoded METAR 2019/04/23 03:53 UTC NOAA

EVERETT SNOHOMISH COUNTY, WA, United States (KPAE) 47-55N 122-17W 180M
Apr 22, 2019 - 11:53 PM EDT / 2019.04.23 0353 UTC
Wind: from the SSE (160 degrees) at 14 MPH (12 KT):0
Visibility: 10 mile(s):0
Sky conditions: overcast
Temperature: 51.1 F (10.6 C)
Dew Point: 48.0 F (8.9 C)
Relative Humidity: 89%
Pressure (altimeter): 30.2 in. Hg (1022 hPa)
ob: KPAE 230353Z 16012KT 10SM BKN008 OVC013 11/09 A3020 RMK AO2 CIG 005V010 SLP228 T01060089
cycle: 4

Station Type Date Time Source
KPAE TAF 2019/04/23 02:59 UTC NOAA

TAF
AMD KPAE 230159Z 2302/2324 17012KT P6SM VCSH BKN008 OVC025
FM230800 17008KT P6SM VCSH OVC012
FM231700 23008KT P6SM VCSH BKN020

Example: see airport list